The Ridgeway Revenge
18 Jun 2016

     
Click your name for detailed results

Page 1 of 4 (176 items)
PosBib NoNameGun TimeChip TimeCategoryCat PosGenderGen PosTeamPace
21262Andrea WEST1:48:39.11:48:32.3Sen1Female17.2 m/hr
26309Victoria PLUMMER1:50:52.01:50:51.0Sen2Female27.1 m/hr
28344Geri TAYLOR1:52:18.71:52:12.9Sen3Female37.0 m/hr
31202Sarah CHEW1:53:34.01:53:28.6Sen4Female4RUN SWINDON6.9 m/hr
35281Jacqui MACQUISTEN1:54:26.51:54:25.6V501Female56.9 m/hr
37348Ruth TUCKER1:54:36.51:54:34.0V401Female66.9 m/hr
41195Ally BRYANT1:56:24.61:56:19.6V402Female7RUN SWINDON6.8 m/hr
49320Christina RYCROFT1:59:18.21:59:12.7V502Female86.6 m/hr
53294Agnes NAGY1:59:50.41:59:48.5Sen5Female96.6 m/hr
54187Annabel BILLETT2:00:28.12:00:25.4V403Female106.5 m/hr
56264Alison JESSOPP2:00:44.82:00:36.3V404Female11DASHETTES6.5 m/hr
60290Tanya MINGO2:01:51.52:01:49.2Sen6Female126.5 m/hr
74269Helen JONES-TOTAYS2:06:25.02:06:16.4V405Female13DASHETTES6.2 m/hr
75316Monika REVESZ2:06:31.12:06:21.7Sen7Female14DASHETTES6.2 m/hr
87368Rachel WHITING2:11:03.92:11:03.9Sen8Female156.0 m/hr
91243Anna GORMAN2:12:11.22:12:11.2Sen9Female165.9 m/hr
93197Janet BULTITUDE2:13:03.32:12:40.1Sen10Female17LAZYLECTURERS5.9 m/hr
97188Eleanor BIRD2:14:16.22:14:04.0Sen11Female185.9 m/hr
101218Elaine DEAN2:15:26.02:15:10.5V503Female195.8 m/hr
102260Sarah HOEKSMA2:15:28.72:14:59.8Sen12Female20LOOKING ADEQUATELY TIRED FOR THE AMOUNT OF EFFORT 5.8 m/hr
105215Lynda DAWES2:17:02.02:16:59.9V406Female21DOVES FARM5.7 m/hr
10687Amanda MANN2:17:03.92:16:50.7V407Female225.7 m/hr
107350Lucy TURNER2:17:07.02:16:44.7V408Female235.7 m/hr
108310Alison POPE2:17:41.82:17:32.4V409Female245.7 m/hr
111229Emma FAULDER2:18:52.12:18:34.6Sen13Female255.7 m/hr
114377Nicola WYLIE2:19:24.72:19:16.4Sen14Female265.6 m/hr
115286Jacqueline MCGURTY2:19:38.02:19:29.4V4010Female275.6 m/hr
118239Emma GEORGE2:20:46.52:20:41.0V4011Female28RUN SWINDON5.6 m/hr
122342Eleanor TAYLOR2:21:32.32:21:17.8V4012Female29HIGHWORTH RUNNING CLUB5.6 m/hr
125252Maria HEDGE2:22:50.32:22:33.3V4013Female305.5 m/hr
127196Kirsten BUCKLE2:23:36.42:23:19.6V4014Female31HIGHWORTH RUNNING CLUB5.5 m/hr
128237Samantha FOSTER2:24:04.62:23:37.0V4015Female325.5 m/hr
130277Elizabeth LATTER2:25:09.52:25:02.1V4016Female33BRITISH AIRWAYS RUNNERS5.4 m/hr
132185Lauryn BENTHAM2:25:40.22:25:26.1Sen15Female34AMBULANCE MAY BE REQUIRED5.4 m/hr
133369Susie WHITTINGTON2:26:16.22:26:01.5V4017Female35HIGHWORTH RUNNING CLUB5.4 m/hr
134301Caroline PACK2:26:16.62:25:48.0V504Female36LOOKING ADEQUATELY TIRED FOR THE AMOUNT OF EFFORT 5.4 m/hr
135207Vinny COLLEY2:26:16.92:25:59.1V505Female37HIGHWORTH RUNNING CLUB5.4 m/hr
136268Karen JONES2:26:17.82:26:07.8V4018Female385.4 m/hr
137339Ruth SUNDERLAND2:27:49.12:27:46.0V506Female395.3 m/hr
138282Kate MALEM2:28:28.52:28:15.8Sen16Female405.3 m/hr
140258Natalie HIGHETT2:29:52.42:29:40.1Sen17Female415.2 m/hr
141276Lucy LASSITER2:31:25.12:31:08.8V507Female425.2 m/hr
142358Annette VOLFING2:31:39.92:31:12.5V508Female435.2 m/hr
143326Stephanie SMALLMAN2:31:43.22:31:31.5Sen18Female445.2 m/hr
144292Pauline MORGAN2:34:34.52:34:17.2V509Female455.1 m/hr
145171Jennifer ADAMS2:35:20.62:35:06.7Sen19Female46AMBULANCE MAY BE REQUIRED5.1 m/hr
146337Susan STYMAN2:35:43.52:35:36.3V5010Female475.0 m/hr
147327Emily SMITH2:35:43.92:35:35.8V4019Female485.0 m/hr
148346Carolyn THRAVES2:36:51.02:36:39.5Sen20Female495.0 m/hr
149351Beverley TURTON2:39:26.02:38:05.6V4020Female504.9 m/hr
Page 1 of 4 (176 items)
   

fb